National Weather Service United States Department of Commerce

Aviation Forecast Discussion

.AVIATION /14Z WEDNESDAY THROUGH SUNDAY/...
The following discussion is for KPHL, KPNE, KTTN, KABE, KRDG, KILG, 
KMIV, KACY and surrounding areas.

Today... A combination of VFR and MVFR (stratus). Northeast 
wind around 5 kt this morning becoming easterly then 
southeasterly at 5 to 10 kt by this afternoon. An isolated 
afternoon shower with locally sub- VFR conditions is possible 
especially near PHL, ILG, and MIV, but not expected to be 
widespread enough to include a mention in the PHL TAF at this 
time. Moderate to high confidence.

Tonight... Initially VFR. A broken stratus deck with MVFR cigs will 
likely develop near or after 06z.  Southeast wind around 5 kt but 
winds may turn light and variable or calm. Moderate to high 
confidence.

Outlook...

Thursday-Thursday night... MVFR possible initially on Thursday 
morning due to lingering stratus, then turning VFR. VFR continues 
into Thursday night, but patchy fog or areas of showers with sub-VFR 
conditions are possible near RDG and ABE. Southeast wind 5 to 10 kt 
through most of the period, becoming more southerly later Thursday 
night. Moderate confidence.

Friday-Friday night... Prevailing VFR, but scattered showers and 
thunderstorms with occasional sub-VFR are likely. Areas of fog with 
sub-VFR conditions may develop overnight. South-southwest wind 5 to 
10 kt becoming light and variable overnight. Low to moderate 
confidence.

Saturday-Saturday night... Prevailing VFR. Scattered showers and 
thunderstorms are possible mainly in the afternoon. Southwest wind 
around 5 kt. Low to moderate confidence.

Sunday-Sunday night... Mainly VFR. Southwest wind 5 to 10 kt. 
Moderate confidence.

&&

Latest PHL Terminal Aerodrome Forecast (TAF)

FTNA35 KPHL 151735 RRE
KPHL 151731Z 1518/1624 10008KT P6SM BKN050
     FM152100 12006KT P6SM SCT050
     FM160600 11004KT P6SM BKN030
     FM160900 10004KT P6SM BKN015
     FM161300 14008KT P6SM BKN035
     FM161800 15009KT P6SM BKN120

Latest Area Terminal Aerodrome Forecasts (TAFs)

FTUS51 KPNE 151733
KPNE 151731Z 1518/1618 10008KT P6SM BKN040
     FM152100 11006KT P6SM SCT050
     FM160600 11003KT P6SM BKN030
     FM160900 10003KT P6SM BKN015
     FM161300 14008KT P6SM BKN035

FTUS80 KTTN 151733 RRD
KTTN 151731Z 1518/1618 11008KT P6SM SCT035 BKN050
     FM152100 14007KT P6SM SCT050
     FM160600 12003KT P6SM BKN030
     FM160900 11003KT P6SM BKN015
     FM161300 14009KT P6SM BKN035

FTUS80 KILG 151733 RRA
KILG 151731Z 1518/1618 13007KT P6SM SCT050
      TEMPO 1518/1522 BKN050
     FM160000 13004KT P6SM SKC
     FM160900 10004KT P6SM BKN025
     FM161600 14008KT P6SM BKN035

FTUS51 KRDG 151733
KRDG 151731Z 1518/1618 16005KT P6SM BKN060
     FM160000 15004KT P6SM SKC
     FM160600 14003KT P6SM BKN030
     FM160900 11003KT P6SM BKN015
     FM161500 16006KT P6SM BKN025
     FM161700 16007KT P6SM BKN035

FTUS80 KABE 151733
KABE 151731Z 1518/1618 15005KT P6SM SCT045
     FM160000 14004KT P6SM SKC
     FM160600 11003KT P6SM BKN030
     FM160900 10003KT P6SM BKN015
     FM161500 14006KT P6SM BKN025
     FM161700 16008KT P6SM BKN035

FTNA35 KACY 151735 RRE
KACY 151731Z 1518/1618 08011KT P6SM BKN020
     FM152000 10011KT P6SM BKN035
     FM160000 11008KT P6SM SCT035
     FM160800 10005KT P6SM BKN025
     FM161300 12008KT P6SM BKN035

FTUS80 KMIV 151733 RRB
KMIV 151731Z 1518/1618 12006KT P6SM VCSH BKN050
      TEMPO 1518/1521 BKN035
     FM152100 11006KT P6SM FEW050
     FM160000 08002KT P6SM SKC
     FM160900 VRB03KT P6SM BKN025
     FM161600 13007KT P6SM BKN035

FTUS80 KEWR 151724 RRC
KEWR 151723Z 1518/1624 14008KT P6SM SCT045
     FM160100 15006KT P6SM SCT020
     FM160600 13005KT P6SM BKN020
     FM161300 12007KT P6SM SCT025 SCT060
     FM161600 14009KT P6SM SCT035 SCT060

FTUS80 KLGA 151724 RRD
KLGA 151723Z 1518/1624 06007KT P6SM SCT030 SCT045
     FM151900 16008KT P6SM SCT045
     FM160200 14007KT P6SM SCT020
     FM160600 13005KT P6SM BKN020
     FM161300 11008KT P6SM SCT025 SCT060
     FM161600 15012KT P6SM SCT035 SCT060

FTNA35 KJFK 151728 RRD
KJFK 151723Z 1518/1624 16008KT P6SM SCT030 SCT045
     FM160200 13006KT P6SM SCT015
     FM160500 13005KT P6SM SCT008 BKN015
     FM161300 13009KT P6SM SCT020 SCT050
     FM161600 14013KT P6SM SCT030 SCT050

FTUS41 KMDT 151727
KMDT 151725Z 1518/1618 15005KT P6SM SCT040
     FM160000 14005KT P6SM FEW250
     FM160800 13007KT P6SM OVC020
     FM161700 14008KT P6SM BKN030

FTUS80 KBWI 151736
KBWI 151735Z 1518/1624 12005KT P6SM SCT060
     FM160200 12007KT P6SM SCT050
     FM160800 12003KT P6SM BKN015
     FM161500 13007KT P6SM SCT040
     FM161900 14009G15KT P6SM SCT045

FTUS80 KIAD 151736 RRA
KIAD 151735Z 1518/1624 17005KT P6SM SCT060
     FM152300 14006KT P6SM SCT050
     FM160800 14003KT P6SM BKN050
     FM161600 14008G15KT P6SM SCT045

FTUS80 KDCA 151736 RRA
KDCA 151735Z 1518/1624 17007KT P6SM SCT060
     FM160000 15006KT P6SM SCT050
     FM160800 14004KT P6SM BKN050
     FM161200 12004KT P6SM SCT015 BKN035
     FM161500 13006KT P6SM SCT040
     FM161900 15009G16KT P6SM SCT045

Raw METAR for Philadelphia International Airport

METAR KPHL 151654Z 07005KT 10SM SCT048 29/19 A3016 RMK AO2 SLP212
     T02940189

Raw METAR for Northeast Philadelphia Regional Airport

METAR KPNE 151654Z VRB05KT 10SM BKN041 28/19 A3019 RMK AO2 SLP220
     T02780189

Raw METAR for Trenton/Mercer County Airport

METAR KTTN 151653Z 10008KT 10SM FEW035 BKN050 28/20 A3018 RMK AO2 SLP210
     T02780200

Raw METAR for Wilmington/New Castle County Airport

METAR KILG 151751Z 12008KT 10SM BKN090 31/17 A3016 RMK AO2 SLP212
     T03060172 10306 20244 50003 $

Raw METAR for Wings Field Airport

METAR KLOM 151735Z AUTO 14004KT 10SM BKN085 29/20 A3017 RMK AO2
     T02930203

Raw METAR for Doylestown Airport

METAR KDYL 151654Z AUTO VRB03KT 10SM FEW050 29/18 A3018 RMK AO2 SLP214
     T02940183

Raw METAR for Coatesville/Chester County Airport

METAR KMQS 151735Z AUTO 00000KT 10SM CLR 29/18 A3019 RMK AO2

Raw METAR for Mount Holly/South Jersey Regional Airport

METAR KVAY 151654Z AUTO VRB04KT 10SM SCT034 BKN042 28/17 A3017 RMK AO2
     SLP217 T02830172

KDIX Radar Loop

KDIX Radar

KDOX Radar Loop

KDIX Radar

Visible Satellite

Visible ImageVisible Loop

Infrared Satellite

Infrared ImageInfrared Loop

ZNY Briefing

ZNY Briefing

ZNY SWAP Statement

ZNY SWAP Statement

KPHL Wind Speed Outlook

KPHL Wind Outlook

KPHL Icing Outlook

KPHL Icing  Outlook

KPHL Compression Outlook

KPHL Compression Outlook

ZNY Day 1 SWAP

KPHL Day 1 SWAP

ZNY Day 2 SWAP

KPHL Day 2 SWAP

Turbulence PIREPs

Turbulence PIREPs

Icing PIREPs

Icing PIREPs

Weather/Sky PIREPs

Weather/Sky PIREPs

Current AIRMETs/SIGMETs

Current AIRMETs/SIGMETs

Sierra (Mountains/IFR) AIRMETs

Current 3-hr Forecast 6-hr Forecast

No Plot Available

No Plot Available

No Plot Available

9-hr Forecast 12-hr Forecast

No Plot Available

No Plot Available

Tango (Turbulence/LLWS) AIRMETs

Current 3-hr Forecast 6-hr Forecast

No Plot Available

No Plot Available

No Plot Available

9-hr Forecast 12-hr Forecast

No Plot Available

No Plot Available

Icing AIRMETs

Current 3-hr Forecast 6-hr Forecast

No Plot Available

No Plot Available

No Plot Available

9-hr Forecast 12-hr Forecast

No Plot Available

No Plot Available

Freezing Level AIRMETs

Current 3-hr Forecast 6-hr Forecast

No Plot Available

No Plot Available

No Plot Available

9-hr Forecast 12-hr Forecast

No Plot Available

No Plot Available